Time;durP1;ratioP1;P1;durP2;ratioP2;P2;SDS_P1;SDS_P2;PMS_P1;PMS_P2;Temp;Humidity;BMP_temperature;BMP_pressure;BME280_temperature;BME280_humidity;BME280_pressure;Samples;Min_cycle;Max_cycle;Signal;HPM_P1;HPM_P2
2023/04/16 00:00:49;;;;;;;54.28;21.27;;;8.60;99.90;;;;;;5110619;28;20050;-83
2023/04/16 00:03:15;;;;;;;46.70;21.05;;;8.60;99.90;;;;;;5111893;27;20047;-83
2023/04/16 00:05:41;;;;;;;52.25;21.05;;;8.50;99.90;;;;;;5110803;27;20042;-83
2023/04/16 00:08:06;;;;;;;48.05;22.50;;;8.60;99.90;;;;;;5109276;27;20053;-82
2023/04/16 00:10:34;;;;;;;52.58;21.80;;;8.60;99.90;;;;;;5096011;28;20089;-83
2023/04/16 00:13:00;;;;;;;49.72;21.27;;;8.60;99.90;;;;;;5098698;27;20123;-83
2023/04/16 00:15:25;;;;;;;58.30;22.70;;;8.60;99.90;;;;;;5094260;27;20077;-83
2023/04/16 00:17:51;;;;;;;53.60;22.33;;;8.60;99.90;;;;;;5094409;27;20088;-84
2023/04/16 00:20:18;;;;;;;57.67;21.65;;;9.10;99.90;;;;;;5110285;28;20046;-84
2023/04/16 00:22:44;;;;;;;51.17;22.30;;;8.60;99.90;;;;;;5110404;27;20093;-84
2023/04/16 00:25:10;;;;;;;60.13;22.00;;;8.60;99.90;;;;;;5110908;27;20626;-84
2023/04/16 00:27:38;;;;;;;53.67;22.27;;;8.60;99.90;;;;;;5103311;28;20043;-84
2023/04/16 00:30:05;;;;;;;56.55;22.83;;;8.60;99.90;;;;;;5091504;28;20458;-83
2023/04/16 00:32:31;;;;;;;51.05;23.48;;;8.60;99.90;;;;;;5127226;27;20127;-83
2023/04/16 00:34:57;;;;;;;49.95;23.73;;;9.00;99.90;;;;;;5111004;28;20054;-84
2023/04/16 00:37:22;;;;;;;50.58;22.77;;;8.60;99.90;;;;;;5128427;28;20051;-83
2023/04/16 00:39:49;;;;;;;50.85;23.55;;;8.70;99.90;;;;;;5112882;28;20039;-82
2023/04/16 00:42:15;;;;;;;49.08;23.27;;;8.70;99.90;;;;;;5112185;28;20446;-82
2023/04/16 00:44:40;;;;;;;45.38;23.23;;;8.60;99.90;;;;;;5111446;28;20167;-82
2023/04/16 00:47:06;;;;;;;47.47;25.17;;;8.60;99.90;;;;;;5111726;28;20055;-82
2023/04/16 00:49:32;;;;;;;52.75;25.08;;;8.60;99.90;;;;;;5094430;28;20043;-83
2023/04/16 00:51:58;;;;;;;51.85;25.40;;;8.60;99.90;;;;;;5111590;28;20063;-82
2023/04/16 00:54:25;;;;;;;46.35;23.50;;;8.70;99.90;;;;;;5086204;28;20044;-83
2023/04/16 00:56:50;;;;;;;47.58;23.55;;;8.60;99.90;;;;;;5091726;28;20043;-83
2023/04/16 00:59:16;;;;;;;51.25;23.27;;;8.60;99.90;;;;;;5092037;28;20404;-83
2023/04/16 01:01:42;;;;;;;44.17;22.95;;;8.70;99.90;;;;;;5092771;28;20080;-83
2023/04/16 01:04:08;;;;;;;54.42;24.13;;;8.60;99.90;;;;;;5092018;28;20040;-84
2023/04/16 01:06:33;;;;;;;52.08;22.92;;;8.60;99.90;;;;;;5111313;28;20039;-82
2023/04/16 01:08:59;;;;;;;49.78;23.85;;;8.60;99.90;;;;;;5111621;28;20047;-82
2023/04/16 01:11:25;;;;;;;49.83;22.27;;;9.30;99.90;;;;;;5110363;28;20047;-84
2023/04/16 01:13:51;;;;;;;48.60;22.50;;;8.70;99.90;;;;;;5112672;27;20051;-83
2023/04/16 01:16:16;;;;;;;45.72;22.80;;;8.60;99.90;;;;;;5114015;27;20035;-82
2023/04/16 01:18:42;;;;;;;48.08;22.42;;;8.60;99.90;;;;;;5114688;27;20433;-82
2023/04/16 01:21:07;;;;;;;52.80;23.10;;;8.60;99.90;;;;;;5113668;27;20043;-82
2023/04/16 01:23:35;;;;;;;44.80;22.98;;;8.60;99.90;;;;;;5114880;27;20043;-82
2023/04/16 01:26:01;;;;;;;46.65;21.73;;;8.70;99.90;;;;;;5133303;27;20185;-83
2023/04/16 01:28:28;;;;;;;47.33;23.10;;;8.60;99.90;;;;;;5114237;27;20453;-83
2023/04/16 01:30:53;;;;;;;50.55;22.60;;;8.60;99.90;;;;;;5090156;28;20110;-83
2023/04/16 01:33:20;;;;;;;49.97;22.70;;;8.60;99.90;;;;;;5077251;28;20451;-83
2023/04/16 01:35:46;;;;;;;48.25;23.23;;;9.00;99.90;;;;;;5113094;28;20059;-83
2023/04/16 01:38:11;;;;;;;49.70;23.55;;;8.60;99.90;;;;;;5124983;27;20051;-83
2023/04/16 01:40:37;;;;;;;54.17;24.20;;;9.00;99.90;;;;;;5112785;27;20047;-83
2023/04/16 01:43:04;;;;;;;46.83;23.08;;;8.50;99.90;;;;;;5112341;27;20086;-83
2023/04/16 01:45:33;;;;;;;50.42;24.35;;;8.60;99.90;;;;;;5112908;27;20055;-83
2023/04/16 01:47:59;;;;;;;50.88;23.27;;;8.50;99.90;;;;;;5131297;27;20043;-82
2023/04/16 01:50:24;;;;;;;48.00;23.98;;;8.50;99.90;;;;;;5112519;27;20416;-83
2023/04/16 01:52:50;;;;;;;55.75;25.23;;;8.60;99.90;;;;;;5131556;27;20054;-82
2023/04/16 01:55:16;;;;;;;53.55;26.05;;;8.50;99.90;;;;;;5110922;27;20035;-83
2023/04/16 01:57:41;;;;;;;55.75;25.63;;;8.50;99.90;;;;;;5132457;27;20089;-83
2023/04/16 02:00:08;;;;;;;50.75;25.75;;;8.50;99.90;;;;;;5113604;27;20047;-83
2023/04/16 02:02:34;;;;;;;48.72;24.30;;;8.50;99.90;;;;;;5114166;27;20378;-82
2023/04/16 02:05:01;;;;;;;51.17;24.17;;;8.70;99.90;;;;;;5131514;27;20047;-82
2023/04/16 02:07:27;;;;;;;51.72;25.45;;;8.50;99.90;;;;;;5131818;27;20127;-82
2023/04/16 02:09:53;;;;;;;47.15;22.88;;;8.50;99.90;;;;;;5112067;27;20122;-83
2023/04/16 02:12:19;;;;;;;48.25;24.08;;;8.60;99.90;;;;;;5130966;27;20043;-83
2023/04/16 02:14:44;;;;;;;50.35;25.42;;;8.50;99.90;;;;;;5113306;27;20499;-83
2023/04/16 02:17:10;;;;;;;53.28;24.55;;;8.50;99.90;;;;;;5097226;27;20088;-83
2023/04/16 02:19:36;;;;;;;46.28;23.30;;;8.50;99.90;;;;;;5132117;27;20050;-83
2023/04/16 02:22:02;;;;;;;56.63;25.67;;;8.60;99.90;;;;;;5095825;27;20060;-83
2023/04/16 02:24:28;;;;;;;50.35;24.38;;;8.60;99.90;;;;;;5126668;27;20084;-82
2023/04/16 02:26:54;;;;;;;57.70;24.92;;;8.50;99.90;;;;;;5092618;28;20341;-82
2023/04/16 02:29:21;;;;;;;58.97;24.58;;;8.50;99.90;;;;;;5094065;27;20108;-82
2023/04/16 02:31:47;;;;;;;50.13;25.17;;;8.50;99.90;;;;;;5092872;28;20047;-83
2023/04/16 02:34:13;;;;;;;50.70;23.88;;;8.50;99.90;;;;;;5092653;28;20532;-81
2023/04/16 02:36:39;;;;;;;56.42;24.05;;;8.50;99.90;;;;;;5110389;28;20064;-84
2023/04/16 02:39:05;;;;;;;54.80;21.98;;;8.50;99.90;;;;;;5077935;27;20050;-84
2023/04/16 02:41:30;;;;;;;51.15;24.30;;;8.60;99.90;;;;;;5111849;27;20043;-84
2023/04/16 02:43:58;;;;;;;54.08;24.52;;;8.50;99.90;;;;;;5130794;27;20043;-82
2023/04/16 02:46:24;;;;;;;54.20;24.65;;;8.50;99.90;;;;;;5095243;27;20131;-83
2023/04/16 02:48:49;;;;;;;53.13;24.33;;;8.70;99.90;;;;;;5111660;27;20585;-83
2023/04/16 02:51:15;;;;;;;51.20;24.45;;;8.50;99.90;;;;;;5109004;27;20038;-83
2023/04/16 02:53:44;;;;;;;55.47;26.10;;;8.50;99.90;;;;;;5110293;27;20412;-84
2023/04/16 02:56:10;;;;;;;52.85;24.95;;;8.90;99.90;;;;;;5111860;27;20493;-83
2023/04/16 02:58:36;;;;;;;47.10;23.20;;;8.40;99.90;;;;;;5129226;27;20039;-83
2023/04/16 03:01:01;;;;;;;46.97;23.83;;;8.70;99.90;;;;;;5111516;27;20381;-83
2023/04/16 03:03:27;;;;;;;44.08;22.80;;;8.30;99.90;;;;;;5130075;27;20515;-83
2023/04/16 03:05:53;;;;;;;45.33;24.13;;;8.30;99.90;;;;;;5094819;27;20043;-83
2023/04/16 03:08:18;;;;;;;43.72;23.65;;;8.30;99.90;;;;;;5110863;27;20043;-82
2023/04/16 03:10:44;;;;;;;44.20;23.77;;;8.30;99.90;;;;;;5110885;27;20127;-83
2023/04/16 03:13:10;;;;;;;46.90;24.38;;;8.30;99.90;;;;;;5093462;27;20039;-83
2023/04/16 03:15:35;;;;;;;42.75;24.05;;;8.20;99.90;;;;;;5110765;27;20047;-83
2023/04/16 03:18:01;;;;;;;54.35;24.58;;;8.30;99.90;;;;;;5111324;27;20043;-83
2023/04/16 03:20:26;;;;;;;50.28;24.10;;;8.20;99.90;;;;;;5110683;27;20054;-83
2023/04/16 03:22:52;;;;;;;58.47;25.52;;;8.30;99.90;;;;;;5111336;27;20047;-83
2023/04/16 03:25:18;;;;;;;49.67;23.15;;;8.50;99.90;;;;;;5110565;27;20881;-83
2023/04/16 03:27:43;;;;;;;55.80;26.05;;;8.50;99.90;;;;;;5096581;28;20164;-83
2023/04/16 03:30:16;;;;;;;50.95;25.52;;;8.40;99.90;;;;;;5108731;28;20122;-84
2023/04/16 03:32:42;;;;;;;53.97;24.83;;;8.30;99.90;;;;;;5091692;28;20393;-83
2023/04/16 03:35:08;;;;;;;50.22;23.77;;;8.30;99.90;;;;;;5074726;28;20043;-83
2023/04/16 03:37:34;;;;;;;49.22;25.77;;;8.30;99.90;;;;;;5091894;27;20536;-83
2023/04/16 03:40:00;;;;;;;53.28;24.88;;;8.30;99.90;;;;;;5111860;27;20047;-83
2023/04/16 03:42:27;;;;;;;50.58;24.42;;;8.20;99.90;;;;;;5107974;27;20047;-83
2023/04/16 03:44:52;;;;;;;52.85;25.42;;;8.30;99.90;;;;;;5092692;27;20054;-83
2023/04/16 03:47:21;;;;;;;51.58;25.15;;;8.20;99.90;;;;;;5110919;27;20047;-83
2023/04/16 03:49:47;;;;;;;51.13;25.40;;;8.20;99.90;;;;;;5111538;27;20058;-83
2023/04/16 03:52:13;;;;;;;58.92;26.02;;;8.30;99.90;;;;;;5095370;27;20509;-83
2023/04/16 03:54:38;;;;;;;55.50;25.77;;;8.60;99.90;;;;;;5111149;27;20050;-83
2023/04/16 03:57:04;;;;;;;53.13;27.02;;;8.70;99.90;;;;;;5111354;27;20043;-83
2023/04/16 03:59:30;;;;;;;50.28;24.92;;;8.20;99.90;;;;;;5111009;27;20149;-83
2023/04/16 04:01:56;;;;;;;54.83;26.73;;;8.20;99.90;;;;;;5092753;27;20047;-82
2023/04/16 04:04:21;;;;;;;48.92;25.40;;;8.30;99.90;;;;;;5128736;27;20131;-82
2023/04/16 04:06:47;;;;;;;49.38;23.95;;;8.30;99.90;;;;;;5110809;27;20474;-82
2023/04/16 04:09:15;;;;;;;52.75;25.35;;;8.30;99.90;;;;;;5093444;27;20135;-83
2023/04/16 04:11:41;;;;;;;50.45;26.63;;;8.30;99.90;;;;;;5109236;27;20043;-83
2023/04/16 04:14:06;;;;;;;50.40;25.52;;;8.20;99.90;;;;;;5110962;27;20489;-83
2023/04/16 04:16:32;;;;;;;55.97;26.23;;;8.20;99.90;;;;;;5103051;28;20051;-82
2023/04/16 04:18:59;;;;;;;49.85;25.67;;;8.30;99.90;;;;;;5102856;27;20114;-82
2023/04/16 04:21:26;;;;;;;53.50;26.67;;;8.20;99.90;;;;;;5109407;28;20180;-83
2023/04/16 04:23:51;;;;;;;52.78;25.45;;;8.30;99.90;;;;;;5110653;28;20047;-82
2023/04/16 04:26:17;;;;;;;61.13;26.75;;;8.30;99.90;;;;;;5110703;28;20035;-82
2023/04/16 04:28:44;;;;;;;57.25;25.17;;;8.20;99.90;;;;;;5110683;28;20043;-83
2023/04/16 04:31:09;;;;;;;56.67;26.52;;;8.20;99.90;;;;;;5122380;27;20040;-83
2023/04/16 04:33:35;;;;;;;53.38;25.95;;;8.30;99.90;;;;;;5090131;28;20405;-83
2023/04/16 04:36:01;;;;;;;53.47;25.88;;;8.20;99.90;;;;;;5106129;28;20442;-83
2023/04/16 04:38:26;;;;;;;53.40;25.98;;;8.20;99.90;;;;;;5106804;28;20055;-83
2023/04/16 04:40:52;;;;;;;57.75;27.73;;;8.20;99.90;;;;;;5108468;28;20079;-83
2023/04/16 04:43:19;;;;;;;60.17;26.30;;;8.20;99.90;;;;;;5104901;28;20044;-83
2023/04/16 04:45:45;;;;;;;51.25;26.13;;;8.60;99.90;;;;;;5103013;28;20048;-84
2023/04/16 04:48:11;;;;;;;46.13;25.73;;;8.30;99.90;;;;;;5086919;28;20044;-83
2023/04/16 04:50:37;;;;;;;46.47;25.48;;;8.20;99.90;;;;;;5109011;28;20067;-83
2023/04/16 04:53:08;;;;;;;50.65;25.55;;;8.50;99.90;;;;;;5073145;28;20494;-83
2023/04/16 04:55:36;;;;;;;51.80;25.33;;;8.20;99.90;;;;;;5091824;28;20097;-83
2023/04/16 04:58:03;;;;;;;51.70;25.73;;;8.30;99.90;;;;;;5090773;28;20032;-83
2023/04/16 05:00:30;;;;;;;51.58;26.15;;;8.30;99.90;;;;;;5092044;28;20158;-83
2023/04/16 05:02:55;;;;;;;50.28;26.20;;;8.30;99.90;;;;;;5092538;28;20395;-83
2023/04/16 05:05:21;;;;;;;48.95;24.95;;;8.30;99.90;;;;;;5074539;28;20036;-83
2023/04/16 05:07:47;;;;;;;47.13;25.95;;;8.30;99.90;;;;;;5091284;28;20048;-83
2023/04/16 05:10:13;;;;;;;47.28;23.35;;;8.30;99.90;;;;;;5091646;28;20055;-83
2023/04/16 05:12:39;;;;;;;46.60;24.83;;;8.30;99.90;;;;;;5090086;28;20054;-83
2023/04/16 05:15:05;;;;;;;46.83;25.13;;;8.30;99.90;;;;;;5090996;28;20044;-83
2023/04/16 05:17:30;;;;;;;43.53;24.42;;;8.30;99.90;;;;;;5085321;28;20044;-83
2023/04/16 05:19:56;;;;;;;41.00;24.48;;;8.40;99.90;;;;;;5090354;28;20093;-83
2023/04/16 05:22:21;;;;;;;48.13;23.77;;;9.10;99.90;;;;;;5092207;28;20066;-83
2023/04/16 05:24:47;;;;;;;49.15;24.38;;;8.40;99.90;;;;;;5092538;28;20086;-83
2023/04/16 05:27:13;;;;;;;45.28;25.23;;;8.40;99.90;;;;;;5091655;28;20155;-83
2023/04/16 05:29:41;;;;;;;44.80;24.40;;;8.50;99.90;;;;;;5073313;28;20052;-84
2023/04/16 05:32:07;;;;;;;43.08;23.50;;;8.50;99.90;;;;;;5092252;28;20046;-84
2023/04/16 05:34:32;;;;;;;40.25;22.55;;;8.60;99.90;;;;;;5095497;28;20044;-84
2023/04/16 05:36:58;;;;;;;41.63;21.80;;;8.60;99.90;;;;;;5103309;28;20064;-84
2023/04/16 05:39:23;;;;;;;47.53;24.42;;;8.50;99.90;;;;;;5106218;27;20130;-83
2023/04/16 05:41:49;;;;;;;41.78;22.98;;;8.50;99.90;;;;;;5091661;28;20341;-82
2023/04/16 05:44:15;;;;;;;47.83;23.45;;;8.50;99.90;;;;;;5095164;28;20097;-83
2023/04/16 05:46:40;;;;;;;45.55;24.27;;;8.80;99.90;;;;;;5087996;28;20829;-83
2023/04/16 05:49:06;;;;;;;42.83;23.45;;;8.60;99.90;;;;;;5109625;28;20055;-84
2023/04/16 05:51:32;;;;;;;40.67;22.38;;;8.60;99.90;;;;;;5093023;28;20039;-84
2023/04/16 05:53:57;;;;;;;41.85;22.02;;;8.60;99.90;;;;;;5110394;28;20035;-84
2023/04/16 05:56:24;;;;;;;40.33;22.10;;;8.70;99.90;;;;;;5107492;28;20070;-84
2023/04/16 05:58:49;;;;;;;43.33;22.77;;;8.70;99.90;;;;;;5105982;28;20102;-84
2023/04/16 06:01:15;;;;;;;41.50;23.08;;;8.70;99.90;;;;;;5105336;28;20719;-83
2023/04/16 06:03:41;;;;;;;43.28;23.50;;;8.90;99.90;;;;;;5101608;28;20051;-84
2023/04/16 06:06:07;;;;;;;44.72;22.88;;;8.80;99.90;;;;;;5107665;28;20040;-86
2023/04/16 06:08:33;;;;;;;41.05;22.25;;;9.50;99.90;;;;;;5107524;28;20417;-85
2023/04/16 06:10:59;;;;;;;44.10;23.88;;;9.30;99.90;;;;;;5108312;28;20048;-85
2023/04/16 06:13:24;;;;;;;39.85;21.83;;;8.90;99.90;;;;;;5109360;28;20466;-83
2023/04/16 06:15:50;;;;;;;39.50;22.05;;;9.00;99.90;;;;;;5108037;28;20126;-84
2023/04/16 06:18:15;;;;;;;38.38;22.60;;;9.00;99.90;;;;;;5108388;28;20038;-83
2023/04/16 06:20:41;;;;;;;42.45;22.85;;;9.10;99.90;;;;;;5092205;28;20439;-82
2023/04/16 06:23:07;;;;;;;42.75;22.48;;;9.20;99.90;;;;;;5108345;28;20047;-82
2023/04/16 06:25:32;;;;;;;43.55;22.63;;;9.40;99.90;;;;;;5110910;28;20421;-82
2023/04/16 06:27:58;;;;;;;42.70;22.10;;;9.50;99.90;;;;;;5109067;28;20126;-84
2023/04/16 06:30:23;;;;;;;39.13;20.80;;;9.90;99.90;;;;;;5074762;28;20561;-83
2023/04/16 06:32:49;;;;;;;34.25;20.48;;;9.90;99.90;;;;;;5108901;28;20060;-84
2023/04/16 06:35:15;;;;;;;38.40;21.02;;;9.50;99.90;;;;;;5090623;28;20124;-85
2023/04/16 06:37:40;;;;;;;37.58;22.00;;;9.50;99.90;;;;;;5105161;28;20228;-84
2023/04/16 06:40:06;;;;;;;36.35;21.05;;;9.60;99.90;;;;;;5053553;28;20044;-83
2023/04/16 06:42:32;;;;;;;35.92;21.30;;;9.50;99.90;;;;;;5082694;28;20051;-80
2023/04/16 06:44:58;;;;;;;36.88;22.38;;;9.40;99.90;;;;;;5088023;28;20085;-82
2023/04/16 06:47:23;;;;;;;39.85;22.23;;;9.40;99.90;;;;;;5088048;28;20361;-82
2023/04/16 06:49:52;;;;;;;35.50;21.63;;;9.90;99.90;;;;;;5071315;28;20405;-83
2023/04/16 06:52:17;;;;;;;38.13;22.35;;;9.30;99.90;;;;;;5087443;28;20040;-84
2023/04/16 06:54:43;;;;;;;35.28;21.55;;;9.20;99.90;;;;;;5079624;28;20037;-82
2023/04/16 06:57:10;;;;;;;32.25;21.02;;;9.20;99.90;;;;;;5080850;28;20051;-84
2023/04/16 06:59:35;;;;;;;32.30;22.23;;;9.10;99.90;;;;;;5086427;28;20547;-83
2023/04/16 07:02:01;;;;;;;33.50;20.40;;;9.10;99.90;;;;;;5089868;28;20048;-83
2023/04/16 07:04:26;;;;;;;34.17;20.38;;;9.10;99.90;;;;;;5088320;28;20102;-83
2023/04/16 07:06:52;;;;;;;34.88;20.48;;;9.10;99.90;;;;;;5088364;28;20043;-82
2023/04/16 07:09:18;;;;;;;35.33;21.35;;;9.10;99.90;;;;;;5071824;28;20044;-83
2023/04/16 07:11:43;;;;;;;34.65;20.00;;;9.10;99.90;;;;;;5069528;28;20171;-83
2023/04/16 07:14:09;;;;;;;32.60;20.02;;;9.00;99.90;;;;;;5088807;28;20039;-83
2023/04/16 07:16:37;;;;;;;31.08;20.83;;;9.10;99.90;;;;;;5071572;28;20444;-83
2023/04/16 07:19:03;;;;;;;33.58;20.92;;;9.20;99.90;;;;;;5087418;28;20055;-83
2023/04/16 07:21:30;;;;;;;32.90;20.30;;;9.60;99.90;;;;;;5086811;28;20048;-83
2023/04/16 07:23:55;;;;;;;33.90;20.65;;;9.30;99.90;;;;;;5087671;28;20089;-83
2023/04/16 07:26:21;;;;;;;30.02;19.88;;;9.40;99.90;;;;;;5086587;28;20048;-83
2023/04/16 07:28:47;;;;;;;30.33;20.10;;;9.50;99.90;;;;;;5066132;28;20122;-83
2023/04/16 07:31:12;;;;;;;39.83;21.40;;;9.60;99.90;;;;;;5087555;28;20048;-83
2023/04/16 07:33:38;;;;;;;34.78;19.80;;;9.70;99.90;;;;;;5070223;28;20059;-83
2023/04/16 07:36:04;;;;;;;32.38;19.33;;;9.70;99.90;;;;;;5092793;28;20110;-82
2023/04/16 07:38:33;;;;;;;31.98;18.05;;;9.70;99.90;;;;;;5090330;28;20092;-83
2023/04/16 07:40:59;;;;;;;33.45;19.10;;;9.70;99.90;;;;;;5108204;28;20092;-84
2023/04/16 07:43:25;;;;;;;33.60;20.23;;;9.70;99.90;;;;;;5108017;28;20096;-84
2023/04/16 07:45:50;;;;;;;29.52;19.02;;;9.70;99.90;;;;;;5092678;28;20036;-84
2023/04/16 07:48:16;;;;;;;30.00;19.27;;;9.70;99.90;;;;;;5109110;28;20104;-82
2023/04/16 07:50:42;;;;;;;36.13;20.20;;;9.70;99.90;;;;;;5105432;28;20044;-83
2023/04/16 07:53:08;;;;;;;35.60;20.02;;;9.70;99.90;;;;;;5106434;28;20075;-83
2023/04/16 07:55:34;;;;;;;31.92;19.10;;;9.80;99.90;;;;;;5106683;28;20043;-84
2023/04/16 07:58:00;;;;;;;34.85;19.02;;;9.80;99.90;;;;;;5106259;28;20043;-84
2023/04/16 08:00:25;;;;;;;33.95;19.33;;;9.80;99.90;;;;;;5105333;28;20489;-84
2023/04/16 08:02:51;;;;;;;28.48;19.73;;;9.80;99.90;;;;;;5090391;28;20818;-85
2023/04/16 08:05:16;;;;;;;30.25;19.85;;;9.90;99.90;;;;;;5107549;28;20035;-84
2023/04/16 08:07:42;;;;;;;33.10;19.33;;;9.90;99.90;;;;;;5108110;28;20615;-83
2023/04/16 08:10:08;;;;;;;30.50;17.23;;;9.90;99.90;;;;;;5090003;28;20044;-82
2023/04/16 08:12:34;;;;;;;28.63;18.80;;;9.90;99.90;;;;;;5107400;28;20166;-84
2023/04/16 08:15:08;;;;;;;28.95;18.67;;;10.00;99.90;;;;;;5105543;28;20051;-83
2023/04/16 08:17:33;;;;;;;29.05;18.80;;;10.00;99.90;;;;;;5089138;28;20523;-83
2023/04/16 08:19:59;;;;;;;26.92;17.88;;;10.10;99.90;;;;;;5105856;28;20054;-83
2023/04/16 08:22:25;;;;;;;28.60;18.20;;;10.30;99.90;;;;;;5107856;28;20082;-83
2023/04/16 08:24:51;;;;;;;28.92;17.92;;;10.60;99.90;;;;;;5089459;28;20036;-83
2023/04/16 08:27:17;;;;;;;27.95;18.30;;;10.30;99.90;;;;;;5106789;28;20402;-84
2023/04/16 08:29:42;;;;;;;31.27;17.40;;;10.40;99.90;;;;;;5106432;28;20058;-83
2023/04/16 08:32:09;;;;;;;28.63;18.38;;;10.40;99.90;;;;;;5107896;28;20350;-81
2023/04/16 08:34:36;;;;;;;26.42;17.38;;;10.50;99.90;;;;;;5107702;28;20069;-81
2023/04/16 08:37:01;;;;;;;27.73;17.17;;;10.60;99.90;;;;;;5108265;28;20510;-81
2023/04/16 08:39:30;;;;;;;33.50;17.42;;;10.60;99.90;;;;;;5106692;28;20086;-82
2023/04/16 08:41:57;;;;;;;28.60;17.23;;;10.80;99.90;;;;;;5109503;28;20075;-82
2023/04/16 08:44:30;;;;;;;30.02;17.75;;;11.10;99.90;;;;;;5110910;28;20511;-82
2023/04/16 08:46:57;;;;;;;28.67;16.48;;;10.80;99.90;;;;;;5110398;28;20502;-82
2023/04/16 08:49:27;;;;;;;29.25;17.27;;;11.20;99.90;;;;;;5109637;28;20047;-82
2023/04/16 08:51:54;;;;;;;32.75;18.45;;;10.80;99.90;;;;;;5107624;28;20071;-82
2023/04/16 08:54:38;;;;;;;33.35;16.98;;;11.10;99.90;;;;;;5101422;28;20044;-82
2023/04/16 08:57:05;;;;;;;33.45;18.02;;;10.90;99.90;;;;;;5097676;28;20055;-82
2023/04/16 08:59:32;;;;;;;29.35;16.35;;;11.00;99.90;;;;;;5110442;28;20423;-82
2023/04/16 09:01:59;;;;;;;27.38;17.23;;;11.00;99.90;;;;;;5107936;28;20499;-82
2023/04/16 09:04:28;;;;;;;30.30;16.92;;;11.10;99.90;;;;;;5108583;28;20040;-82
2023/04/16 09:06:58;;;;;;;29.33;17.00;;;11.70;99.90;;;;;;5109503;28;20402;-82
2023/04/16 09:09:25;;;;;;;25.85;16.85;;;11.50;99.90;;;;;;5105999;28;20485;-82
2023/04/16 09:11:52;;;;;;;27.83;17.65;;;11.50;99.90;;;;;;5105565;28;20111;-82
2023/04/16 09:14:18;;;;;;;29.75;18.33;;;11.60;99.90;;;;;;5104917;28;20040;-82
2023/04/16 09:16:46;;;;;;;28.60;17.70;;;11.80;99.90;;;;;;5107591;28;20051;-82
2023/04/16 09:19:15;;;;;;;28.38;16.15;;;12.40;99.90;;;;;;5105565;28;20566;-82
2023/04/16 09:21:44;;;;;;;26.17;16.05;;;12.00;99.90;;;;;;5104917;28;20066;-82
2023/04/16 09:24:10;;;;;;;25.60;16.60;;;12.20;99.90;;;;;;5103945;28;20089;-82
2023/04/16 09:26:36;;;;;;;29.45;16.50;;;12.20;99.90;;;;;;5105118;28;20474;-82
2023/04/16 09:29:02;;;;;;;29.48;16.30;;;13.00;99.90;;;;;;5106604;28;20051;-84
2023/04/16 09:31:27;;;;;;;28.95;16.73;;;13.10;99.90;;;;;;5104316;28;20039;-81
2023/04/16 09:34:04;;;;;;;27.02;17.00;;;12.70;99.90;;;;;;5107608;28;20040;-81
2023/04/16 09:36:31;;;;;;;28.40;17.05;;;12.80;99.90;;;;;;5115566;27;20066;-80
2023/04/16 09:38:57;;;;;;;26.80;15.88;;;12.90;99.90;;;;;;5127563;27;20042;-84
2023/04/16 09:41:28;;;;;;;26.15;17.05;;;13.00;99.90;;;;;;5123055;27;20043;-83
2023/04/16 09:43:57;;;;;;;23.30;15.82;;;13.60;99.90;;;;;;5112953;27;20043;-86
2023/04/16 09:46:32;;;;;;;27.95;16.65;;;13.20;99.90;;;;;;5131954;27;20114;-85
2023/04/16 09:49:07;;;;;;;25.38;14.88;;;13.30;99.90;;;;;;5112445;27;20541;-84
2023/04/16 09:51:36;;;;;;;20.58;15.45;;;13.30;99.90;;;;;;5112329;27;20409;-84
2023/04/16 09:54:04;;;;;;;22.10;15.82;;;13.50;99.90;;;;;;5130944;27;20058;-84
2023/04/16 09:56:30;;;;;;;23.05;14.85;;;13.50;99.90;;;;;;5112601;27;20039;-85
2023/04/16 09:58:58;;;;;;;25.88;14.75;;;14.30;99.90;;;;;;5113140;27;20088;-86
2023/04/16 10:01:24;;;;;;;25.52;15.70;;;13.70;99.90;;;;;;5131121;27;20068;-84
2023/04/16 10:03:53;;;;;;;20.42;14.43;;;14.00;99.90;;;;;;5131125;27;20050;-84
2023/04/16 10:06:20;;;;;;;17.73;13.63;;;13.80;99.90;;;;;;5122674;27;20134;-84
2023/04/16 10:08:50;;;;;;;21.58;14.40;;;13.90;99.90;;;;;;5123233;27;20530;-84
2023/04/16 10:11:16;;;;;;;17.00;14.02;;;14.00;99.90;;;;;;5110958;27;20103;-84
2023/04/16 10:13:42;;;;;;;19.40;14.43;;;14.30;99.90;;;;;;5095949;27;20126;-84
2023/04/16 10:16:08;;;;;;;21.73;14.55;;;14.20;99.90;;;;;;5113300;27;20475;-84
2023/04/16 10:18:39;;;;;;;23.00;15.02;;;14.30;99.90;;;;;;5112052;27;20130;-84
2023/04/16 10:21:05;;;;;;;18.08;13.45;;;14.30;99.90;;;;;;5111397;27;20050;-83
2023/04/16 10:23:32;;;;;;;20.02;15.07;;;14.40;99.90;;;;;;5129935;27;20097;-84
2023/04/16 10:25:59;;;;;;;22.10;14.85;;;14.60;99.90;;;;;;5111968;27;20461;-84
2023/04/16 10:28:25;;;;;;;21.55;14.35;;;14.60;99.90;;;;;;5112188;27;20050;-84
2023/04/16 10:30:52;;;;;;;18.48;13.73;;;14.60;99.90;;;;;;5112465;27;20115;-85
2023/04/16 10:33:24;;;;;;;18.33;14.23;;;14.80;99.90;;;;;;5096548;28;20511;-83
2023/04/16 10:35:51;;;;;;;20.02;13.45;;;14.90;99.90;;;;;;5091189;27;20044;-84
2023/04/16 10:38:25;;;;;;;19.20;13.45;;;14.90;99.90;;;;;;5077129;28;20143;-84
2023/04/16 10:41:05;;;;;;;19.77;14.13;;;15.40;99.90;;;;;;5091512;28;20055;-85
2023/04/16 10:43:37;;;;;;;17.95;13.88;;;15.20;99.90;;;;;;5091482;28;20390;-84
2023/04/16 10:46:16;;;;;;;;;;;15.20;99.90;;;;;;5108183;27;20119;-82
2023/04/16 10:48:42;;;;;;;18.33;12.82;;;15.30;99.90;;;;;;5112987;27;19919;-83
2023/04/16 10:51:23;;;;;;;17.50;12.73;;;15.50;99.90;;;;;;5115886;27;20051;-83
2023/04/16 10:53:49;;;;;;;18.00;13.77;;;15.60;99.90;;;;;;5108570;27;20092;-82
2023/04/16 10:56:22;;;;;;;16.58;12.70;;;16.00;99.90;;;;;;5108846;27;20039;-82
2023/04/16 10:58:48;;;;;;;16.83;12.63;;;15.80;99.90;;;;;;5114663;27;20203;-83
2023/04/16 11:01:15;;;;;;;18.33;12.60;;;15.70;99.90;;;;;;5090618;27;20236;-83
2023/04/16 11:03:47;;;;;;;14.65;11.68;;;15.80;99.90;;;;;;5112726;27;20053;-83
2023/04/16 11:06:25;;;;;;;17.70;12.68;;;15.90;99.90;;;;;;5112704;27;20053;-83
2023/04/16 11:08:51;;;;;;;14.43;12.18;;;16.00;99.90;;;;;;5111953;27;20047;-82
2023/04/16 11:11:18;;;;;;;15.27;12.68;;;15.90;99.90;;;;;;5110510;27;20165;-81
2023/04/16 11:13:44;;;;;;;13.63;12.18;;;16.10;99.90;;;;;;5106539;27;20126;-81
2023/04/16 11:16:15;;;;;;;16.38;12.88;;;16.30;99.90;;;;;;5112250;27;20103;-82
2023/04/16 11:18:41;;;;;;;14.85;11.88;;;16.20;99.90;;;;;;5113171;27;20035;-82
2023/04/16 11:21:11;;;;;;;15.75;12.20;;;16.30;99.90;;;;;;5099361;28;20394;-81
2023/04/16 11:23:52;;;;;;;16.80;13.25;;;16.30;99.90;;;;;;5099064;27;20039;-82
2023/04/16 11:26:29;;;;;;;17.60;12.90;;;16.40;99.90;;;;;;5094226;28;20046;-82
2023/04/16 11:28:55;;;;;;;15.20;11.85;;;16.30;99.90;;;;;;5093339;28;20051;-83
2023/04/16 11:31:22;;;;;;;18.48;12.73;;;16.60;99.90;;;;;;5074550;28;20109;-81
2023/04/16 11:33:49;;;;;;;13.73;12.25;;;16.50;99.90;;;;;;5129587;27;20405;-81
2023/04/16 11:36:15;;;;;;;16.52;12.85;;;16.50;99.90;;;;;;5137329;27;20152;-82
2023/04/16 11:38:41;;;;;;;18.52;13.38;;;16.60;99.90;;;;;;5134697;27;20090;-84
2023/04/16 11:41:08;;;;;;;16.27;13.75;;;16.70;99.90;;;;;;5099343;27;20095;-83
2023/04/16 11:43:34;;;;;;;13.60;12.20;;;16.50;99.90;;;;;;5115777;27;20043;-83
2023/04/16 11:46:03;;;;;;;14.93;12.88;;;16.80;99.90;;;;;;5096266;27;20086;-82
2023/04/16 11:48:49;;;;;;;16.05;11.32;;;16.90;99.90;;;;;;5111594;27;20055;-82
2023/04/16 11:51:15;;;;;;;15.60;12.45;;;16.70;99.90;;;;;;5111316;27;20152;-83
2023/04/16 11:53:48;;;;;;;14.10;12.13;;;16.50;99.90;;;;;;5095569;27;20082;-82
2023/04/16 11:56:14;;;;;;;13.60;11.70;;;16.70;99.90;;;;;;5127136;27;20050;-82
2023/04/16 11:58:40;;;;;;;19.33;12.38;;;16.70;99.90;;;;;;5111313;27;20055;-82
2023/04/16 12:01:08;;;;;;;12.77;11.48;;;16.80;99.90;;;;;;5109763;27;20485;-82
2023/04/16 12:03:44;;;;;;;15.18;10.52;;;16.80;99.90;;;;;;5110015;27;20077;-83
2023/04/16 12:06:10;;;;;;;15.02;11.65;;;16.80;99.90;;;;;;5109362;27;20043;-83
2023/04/16 12:08:36;;;;;;;13.93;11.63;;;16.60;99.90;;;;;;5128347;27;20045;-83
2023/04/16 12:11:02;;;;;;;15.57;11.43;;;16.50;99.90;;;;;;5107933;27;20421;-83
2023/04/16 12:13:27;;;;;;;19.73;12.05;;;16.50;99.90;;;;;;5109774;27;20067;-82
2023/04/16 12:15:55;;;;;;;14.15;11.07;;;16.70;99.90;;;;;;5109597;27;20039;-83
2023/04/16 12:18:23;;;;;;;13.85;11.15;;;16.60;99.90;;;;;;5094042;28;20405;-82
2023/04/16 12:20:52;;;;;;;14.10;11.82;;;16.70;99.90;;;;;;5091917;28;20047;-82
2023/04/16 12:23:24;;;;;;;12.40;11.13;;;16.80;99.90;;;;;;5090945;28;20050;-82
2023/04/16 12:25:50;;;;;;;13.25;10.57;;;16.80;99.90;;;;;;5092835;28;20168;-83
2023/04/16 12:28:31;;;;;;;15.15;11.20;;;16.90;99.90;;;;;;5112019;28;20142;-82
2023/04/16 12:30:56;;;;;;;15.02;11.32;;;16.90;99.90;;;;;;5111406;27;20072;-82